sensor_id;sensor_type;location;lat;lon;timestamp;pressure;altitude;pressure_sealevel;temperature;humidity
37634;BME280;32048;49.902;22.508;2023-04-03T00:01:11;98669.81;;;2.63;100.00
37634;BME280;32048;49.902;22.508;2023-04-03T00:03:39;98668.97;;;2.61;100.00
37634;BME280;32048;49.902;22.508;2023-04-03T00:06:09;98666.47;;;2.56;100.00
37634;BME280;32048;49.902;22.508;2023-04-03T00:08:38;98667.31;;;2.57;100.00
37634;BME280;32048;49.902;22.508;2023-04-03T00:11:06;98668.25;;;2.53;100.00
37634;BME280;32048;49.902;22.508;2023-04-03T00:13:33;98665.69;;;2.51;100.00
37634;BME280;32048;49.902;22.508;2023-04-03T00:16:00;98667.50;;;2.49;100.00
37634;BME280;32048;49.902;22.508;2023-04-03T00:18:29;98666.59;;;2.50;100.00
37634;BME280;32048;49.902;22.508;2023-04-03T00:20:56;98663.13;;;2.49;100.00
37634;BME280;32048;49.902;22.508;2023-04-03T00:23:23;98667.53;;;2.46;100.00
37634;BME280;32048;49.902;22.508;2023-04-03T00:25:51;98666.66;;;2.47;100.00
37634;BME280;32048;49.902;22.508;2023-04-03T00:28:19;98669.22;;;2.48;100.00
37634;BME280;32048;49.902;22.508;2023-04-03T00:30:48;98670.97;;;2.48;100.00
37634;BME280;32048;49.902;22.508;2023-04-03T00:33:16;98673.56;;;2.48;100.00
37634;BME280;32048;49.902;22.508;2023-04-03T00:35:43;98678.78;;;2.48;100.00
37634;BME280;32048;49.902;22.508;2023-04-03T00:38:11;98677.09;;;2.47;100.00
37634;BME280;32048;49.902;22.508;2023-04-03T00:40:41;98674.47;;;2.47;100.00
37634;BME280;32048;49.902;22.508;2023-04-03T00:43:15;98670.97;;;2.48;100.00
37634;BME280;32048;49.902;22.508;2023-04-03T00:45:45;98667.50;;;2.47;100.00
37634;BME280;32048;49.902;22.508;2023-04-03T00:48:20;98664.06;;;2.47;100.00
37634;BME280;32048;49.902;22.508;2023-04-03T00:50:48;98658.88;;;2.45;100.00
37634;BME280;32048;49.902;22.508;2023-04-03T00:53:19;98669.38;;;2.42;100.00
37634;BME280;32048;49.902;22.508;2023-04-03T00:55:49;98668.47;;;2.42;100.00
37634;BME280;32048;49.902;22.508;2023-04-03T00:58:19;98671.97;;;2.42;100.00
37634;BME280;32048;49.902;22.508;2023-04-03T01:00:50;98675.53;;;2.38;100.00
37634;BME280;32048;49.902;22.508;2023-04-03T01:03:23;98679.06;;;2.36;100.00
37634;BME280;32048;49.902;22.508;2023-04-03T01:05:51;98668.59;;;2.37;100.00
37634;BME280;32048;49.902;22.508;2023-04-03T01:08:18;98667.81;;;2.34;100.00
37634;BME280;32048;49.902;22.508;2023-04-03T01:10:45;98671.25;;;2.36;100.00
37634;BME280;32048;49.902;22.508;2023-04-03T01:13:27;98676.53;;;2.31;100.00
37634;BME280;32048;49.902;22.508;2023-04-03T01:15:54;98673.06;;;2.31;100.00
37634;BME280;32048;49.902;22.508;2023-04-03T01:18:23;98672.19;;;2.32;100.00
37634;BME280;32048;49.902;22.508;2023-04-03T01:25:53;98674.06;;;2.25;100.00
37634;BME280;32048;49.902;22.508;2023-04-03T01:28:27;98680.19;;;2.21;100.00
37634;BME280;32048;49.902;22.508;2023-04-03T01:33:41;98697.59;;;2.19;100.00
37634;BME280;32048;49.902;22.508;2023-04-03T01:36:08;98695.91;;;2.18;100.00
37634;BME280;32048;49.902;22.508;2023-04-03T01:38:36;98693.31;;;2.16;100.00
37634;BME280;32048;49.902;22.508;2023-04-03T01:41:03;98694.16;;;2.17;100.00
37634;BME280;32048;49.902;22.508;2023-04-03T01:43:30;98697.69;;;2.14;100.00
37634;BME280;32048;49.902;22.508;2023-04-03T01:45:57;98705.50;;;2.14;100.00
37634;BME280;32048;49.902;22.508;2023-04-03T01:48:25;98704.59;;;2.15;100.00
37634;BME280;32048;49.902;22.508;2023-04-03T01:50:52;98708.13;;;2.14;100.00
37634;BME280;32048;49.902;22.508;2023-04-03T01:53:19;98708.97;;;2.15;100.00
37634;BME280;32048;49.902;22.508;2023-04-03T01:55:46;98718.53;;;2.16;100.00
37634;BME280;32048;49.902;22.508;2023-04-03T01:58:13;98711.56;;;2.16;100.00
37634;BME280;32048;49.902;22.508;2023-04-03T02:00:41;98711.56;;;2.15;100.00
37634;BME280;32048;49.902;22.508;2023-04-03T02:03:08;98719.44;;;2.13;100.00
37634;BME280;32048;49.902;22.508;2023-04-03T02:05:35;98711.63;;;2.13;100.00
37634;BME280;32048;49.902;22.508;2023-04-03T02:08:02;98719.44;;;2.13;100.00
37634;BME280;32048;49.902;22.508;2023-04-03T02:10:29;98712.50;;;2.11;100.00
37634;BME280;32048;49.902;22.508;2023-04-03T02:12:57;98720.31;;;2.11;100.00
37634;BME280;32048;49.902;22.508;2023-04-03T02:15:24;98716.97;;;2.05;100.00
37634;BME280;32048;49.902;22.508;2023-04-03T02:17:51;98716.09;;;2.05;100.00
37634;BME280;32048;49.902;22.508;2023-04-03T02:20:19;98727.41;;;2.04;100.00
37634;BME280;32048;49.902;22.508;2023-04-03T02:22:47;98721.34;;;2.03;100.00
37634;BME280;32048;49.902;22.508;2023-04-03T02:25:14;98726.59;;;2.02;100.00
37634;BME280;32048;49.902;22.508;2023-04-03T02:27:42;98729.22;;;2.00;100.00
37634;BME280;32048;49.902;22.508;2023-04-03T02:30:09;98724.84;;;2.01;100.00
37634;BME280;32048;49.902;22.508;2023-04-03T02:32:37;98731.81;;;2.00;100.00
37634;BME280;32048;49.902;22.508;2023-04-03T02:35:05;98730.13;;;1.98;100.00
37634;BME280;32048;49.902;22.508;2023-04-03T02:37:33;98731.91;;;1.96;100.00
37634;BME280;32048;49.902;22.508;2023-04-03T02:40:00;98729.31;;;1.94;100.00
37634;BME280;32048;49.902;22.508;2023-04-03T02:42:27;98737.13;;;1.93;100.00
37634;BME280;32048;49.902;22.508;2023-04-03T02:44:54;98740.66;;;1.92;100.00
37634;BME280;32048;49.902;22.508;2023-04-03T02:47:25;98742.41;;;1.91;100.00
37634;BME280;32048;49.902;22.508;2023-04-03T02:49:52;98742.41;;;1.90;100.00
37634;BME280;32048;49.902;22.508;2023-04-03T02:52:20;98743.34;;;1.87;100.00
37634;BME280;32048;49.902;22.508;2023-04-03T02:54:47;98747.69;;;1.86;100.00
37634;BME280;32048;49.902;22.508;2023-04-03T02:57:15;98753.81;;;1.84;100.00
37634;BME280;32048;49.902;22.508;2023-04-03T02:59:42;98761.63;;;1.84;100.00
37634;BME280;32048;49.902;22.508;2023-04-03T03:02:09;98759.06;;;1.81;100.00
37634;BME280;32048;49.902;22.508;2023-04-03T03:04:37;98759.13;;;1.78;100.00
37634;BME280;32048;49.902;22.508;2023-04-03T03:07:04;98760.88;;;1.77;100.00
37634;BME280;32048;49.902;22.508;2023-04-03T03:09:31;98762.59;;;1.77;100.00
37634;BME280;32048;49.902;22.508;2023-04-03T03:11:59;98762.63;;;1.75;100.00
37634;BME280;32048;49.902;22.508;2023-04-03T03:14:26;98759.13;;;1.75;100.00
37634;BME280;32048;49.902;22.508;2023-04-03T03:16:53;98763.56;;;1.70;100.00
37634;BME280;32048;49.902;22.508;2023-04-03T03:19:20;98765.31;;;1.69;100.00
37634;BME280;32048;49.902;22.508;2023-04-03T03:21:47;98767.06;;;1.69;100.00
37634;BME280;32048;49.902;22.508;2023-04-03T03:24:14;98771.41;;;1.68;100.00
37634;BME280;32048;49.902;22.508;2023-04-03T03:26:43;98767.94;;;1.67;100.00
37634;BME280;32048;49.902;22.508;2023-04-03T03:29:10;98763.59;;;1.68;100.00
37634;BME280;32048;49.902;22.508;2023-04-03T03:31:38;98768.84;;;1.66;100.00
37634;BME280;32048;49.902;22.508;2023-04-03T03:34:05;98768.00;;;1.64;100.00
37634;BME280;32048;49.902;22.508;2023-04-03T03:36:32;98764.50;;;1.65;100.00
37634;BME280;32048;49.902;22.508;2023-04-03T03:38:59;98768.00;;;1.66;100.00
37634;BME280;32048;49.902;22.508;2023-04-03T03:41:26;98775.84;;;1.61;100.00
37634;BME280;32048;49.902;22.508;2023-04-03T03:43:53;98771.53;;;1.59;100.00
37634;BME280;32048;49.902;22.508;2023-04-03T03:46:20;98768.09;;;1.58;100.00
37634;BME280;32048;49.902;22.508;2023-04-03T03:48:48;98766.47;;;1.53;100.00
37634;BME280;32048;49.902;22.508;2023-04-03T03:51:15;98770.81;;;1.51;100.00
37634;BME280;32048;49.902;22.508;2023-04-03T03:53:42;98773.44;;;1.49;100.00
37634;BME280;32048;49.902;22.508;2023-04-03T03:56:09;98776.94;;;1.47;100.00
37634;BME280;32048;49.902;22.508;2023-04-03T03:58:37;98779.56;;;1.45;100.00
37634;BME280;32048;49.902;22.508;2023-04-03T04:01:06;98775.22;;;1.45;100.00
37634;BME280;32048;49.902;22.508;2023-04-03T04:03:33;98778.72;;;1.44;100.00
37634;BME280;32048;49.902;22.508;2023-04-03T04:06:01;98781.31;;;1.44;100.00
37634;BME280;32048;49.902;22.508;2023-04-03T04:08:28;98784.81;;;1.42;100.00
37634;BME280;32048;49.902;22.508;2023-04-03T04:10:55;98790.00;;;1.43;100.00
37634;BME280;32048;49.902;22.508;2023-04-03T04:13:23;98792.66;;;1.40;100.00
37634;BME280;32048;49.902;22.508;2023-04-03T04:15:50;98787.50;;;1.37;100.00
37634;BME280;32048;49.902;22.508;2023-04-03T04:18:17;98794.44;;;1.37;100.00
37634;BME280;32048;49.902;22.508;2023-04-03T04:20:46;98800.53;;;1.36;100.00
37634;BME280;32048;49.902;22.508;2023-04-03T04:23:14;98797.94;;;1.34;100.00
37634;BME280;32048;49.902;22.508;2023-04-03T04:25:47;98806.63;;;1.32;100.00
37634;BME280;32048;49.902;22.508;2023-04-03T04:28:15;98804.09;;;1.30;100.00
37634;BME280;32048;49.902;22.508;2023-04-03T04:30:42;98804.94;;;1.29;100.00
37634;BME280;32048;49.902;22.508;2023-04-03T04:33:10;98798.03;;;1.28;100.00
37634;BME280;32048;49.902;22.508;2023-04-03T04:35:37;98811.91;;;1.27;100.00
37634;BME280;32048;49.902;22.508;2023-04-03T04:38:05;98818.00;;;1.26;100.00
37634;BME280;32048;49.902;22.508;2023-04-03T04:40:34;98812.88;;;1.20;100.00
37634;BME280;32048;49.902;22.508;2023-04-03T04:43:02;98809.50;;;1.13;100.00
37634;BME280;32048;49.902;22.508;2023-04-03T04:45:29;98813.00;;;1.09;100.00
37634;BME280;32048;49.902;22.508;2023-04-03T04:47:56;98819.97;;;1.09;100.00
37634;BME280;32048;49.902;22.508;2023-04-03T04:50:23;98826.00;;;1.11;100.00
37634;BME280;32048;49.902;22.508;2023-04-03T04:52:51;98824.25;;;1.13;100.00
37634;BME280;32048;49.902;22.508;2023-04-03T04:55:18;98824.31;;;1.07;100.00
37634;BME280;32048;49.902;22.508;2023-04-03T04:57:45;98826.91;;;1.08;100.00
37634;BME280;32048;49.902;22.508;2023-04-03T05:00:12;98839.09;;;1.03;100.00
37634;BME280;32048;49.902;22.508;2023-04-03T05:02:40;98838.22;;;1.02;100.00
37634;BME280;32048;49.902;22.508;2023-04-03T05:05:08;98846.03;;;1.02;100.00
37634;BME280;32048;49.902;22.508;2023-04-03T05:07:35;98848.69;;;1.01;100.00
37634;BME280;32048;49.902;22.508;2023-04-03T05:10:03;98842.59;;;1.00;100.00
37634;BME280;32048;49.902;22.508;2023-04-03T05:12:31;98853.00;;;1.00;100.00
37634;BME280;32048;49.902;22.508;2023-04-03T05:14:59;98846.09;;;0.98;100.00
37634;BME280;32048;49.902;22.508;2023-04-03T05:17:26;98855.63;;;0.97;100.00
37634;BME280;32048;49.902;22.508;2023-04-03T05:19:53;98856.50;;;0.98;100.00
37634;BME280;32048;49.902;22.508;2023-04-03T05:22:20;98865.13;;;1.00;100.00
37634;BME280;32048;49.902;22.508;2023-04-03T05:24:47;98859.94;;;1.00;100.00
37634;BME280;32048;49.902;22.508;2023-04-03T05:27:15;98863.38;;;1.03;100.00
37634;BME280;32048;49.902;22.508;2023-04-03T05:29:42;98865.06;;;1.06;100.00
37634;BME280;32048;49.902;22.508;2023-04-03T05:32:11;98865.03;;;1.08;100.00
37634;BME280;32048;49.902;22.508;2023-04-03T05:34:38;98863.28;;;1.11;100.00
37634;BME280;32048;49.902;22.508;2023-04-03T05:37:05;98866.72;;;1.13;100.00
37634;BME280;32048;49.902;22.508;2023-04-03T05:39:32;98862.34;;;1.17;100.00
37634;BME280;32048;49.902;22.508;2023-04-03T05:42:00;98857.94;;;1.20;100.00
37634;BME280;32048;49.902;22.508;2023-04-03T05:44:27;98868.41;;;1.19;100.00
37634;BME280;32048;49.902;22.508;2023-04-03T05:46:54;98871.84;;;1.18;100.00
37634;BME280;32048;49.902;22.508;2023-04-03T05:49:22;98873.63;;;1.14;100.00
37634;BME280;32048;49.902;22.508;2023-04-03T05:51:49;98877.13;;;1.13;100.00
37634;BME280;32048;49.902;22.508;2023-04-03T05:54:20;98878.88;;;1.11;100.00
37634;BME280;32048;49.902;22.508;2023-04-03T05:56:50;98887.56;;;1.10;100.00
37634;BME280;32048;49.902;22.508;2023-04-03T05:59:18;98878.00;;;1.12;100.00
37634;BME280;32048;49.902;22.508;2023-04-03T06:01:46;98876.28;;;1.10;100.00
37634;BME280;32048;49.902;22.508;2023-04-03T06:04:14;98884.09;;;1.10;100.00
37634;BME280;32048;49.902;22.508;2023-04-03T06:06:52;98890.13;;;1.12;100.00
37634;BME280;32048;49.902;22.508;2023-04-03T06:09:21;98881.44;;;1.14;100.00
37634;BME280;32048;49.902;22.508;2023-04-03T06:11:49;98881.41;;;1.16;100.00
37634;BME280;32048;49.902;22.508;2023-04-03T06:14:16;98888.31;;;1.18;100.00
37634;BME280;32048;49.902;22.508;2023-04-03T06:16:43;98887.41;;;1.21;100.00
37634;BME280;32048;49.902;22.508;2023-04-03T06:19:11;98889.16;;;1.20;100.00
37634;BME280;32048;49.902;22.508;2023-04-03T06:21:39;98894.38;;;1.20;100.00
37634;BME280;32048;49.902;22.508;2023-04-03T06:24:06;98894.41;;;1.19;100.00
37634;BME280;32048;49.902;22.508;2023-04-03T06:26:34;98891.81;;;1.16;100.00
37634;BME280;32048;49.902;22.508;2023-04-03T06:29:02;98899.72;;;1.07;100.00
37634;BME280;32048;49.902;22.508;2023-04-03T06:31:29;98909.34;;;1.01;100.00
37634;BME280;32048;49.902;22.508;2023-04-03T06:33:57;98908.53;;;0.93;100.00
37634;BME280;32048;49.902;22.508;2023-04-03T06:36:24;98910.28;;;0.91;100.00
37634;BME280;32048;49.902;22.508;2023-04-03T06:38:52;98911.16;;;0.92;100.00
37634;BME280;32048;49.902;22.508;2023-04-03T06:41:20;98912.03;;;0.92;100.00
37634;BME280;32048;49.902;22.508;2023-04-03T06:43:47;98910.25;;;0.96;100.00
37634;BME280;32048;49.902;22.508;2023-04-03T06:46:16;98915.44;;;0.97;100.00
37634;BME280;32048;49.902;22.508;2023-04-03T06:48:44;98920.59;;;1.03;100.00
37634;BME280;32048;49.902;22.508;2023-04-03T06:51:27;98922.22;;;1.11;100.00
37634;BME280;32048;49.902;22.508;2023-04-03T06:53:56;98917.81;;;1.16;100.00
37634;BME280;32048;49.902;22.508;2023-04-03T06:56:25;98924.72;;;1.18;100.00
37634;BME280;32048;49.902;22.508;2023-04-03T06:58:54;98922.13;;;1.21;100.00
37634;BME280;32048;49.902;22.508;2023-04-03T07:01:21;98934.28;;;1.19;100.00
37634;BME280;32048;49.902;22.508;2023-04-03T07:03:49;98931.69;;;1.18;100.00
37634;BME280;32048;49.902;22.508;2023-04-03T07:06:17;98939.59;;;1.09;100.00
37634;BME280;32048;49.902;22.508;2023-04-03T07:08:45;98938.78;;;1.03;100.00
37634;BME280;32048;49.902;22.508;2023-04-03T07:11:13;98937.09;;;1.01;100.00
37634;BME280;32048;49.902;22.508;2023-04-03T07:13:40;98941.41;;;1.00;100.00
37634;BME280;32048;49.902;22.508;2023-04-03T07:16:08;98944.03;;;0.97;100.00
37634;BME280;32048;49.902;22.508;2023-04-03T07:18:35;98951.00;;;0.95;100.00
37634;BME280;32048;49.902;22.508;2023-04-03T07:21:04;98940.59;;;0.94;100.00
37634;BME280;32048;49.902;22.508;2023-04-03T07:23:31;98948.44;;;0.91;100.00
37634;BME280;32048;49.902;22.508;2023-04-03T07:25:59;98958.88;;;0.86;100.00
37634;BME280;32048;49.902;22.508;2023-04-03T07:28:26;98967.53;;;0.87;100.00
37634;BME280;32048;49.902;22.508;2023-04-03T07:31:03;98972.75;;;0.87;100.00
37634;BME280;32048;49.902;22.508;2023-04-03T07:33:30;98971.94;;;0.81;100.00
37634;BME280;32048;49.902;22.508;2023-04-03T07:35:58;98971.97;;;0.77;100.00
37634;BME280;32048;49.902;22.508;2023-04-03T07:38:25;98971.13;;;0.75;100.00
37634;BME280;32048;49.902;22.508;2023-04-03T07:40:52;98972.03;;;0.69;100.00
37634;BME280;32048;49.902;22.508;2023-04-03T07:43:20;98973.81;;;0.64;100.00
37634;BME280;32048;49.902;22.508;2023-04-03T07:45:49;98969.53;;;0.58;100.00
37634;BME280;32048;49.902;22.508;2023-04-03T07:48:20;98975.63;;;0.54;100.00
37634;BME280;32048;49.902;22.508;2023-04-03T07:50:49;98981.69;;;0.56;100.00
37634;BME280;32048;49.902;22.508;2023-04-03T07:53:16;98988.56;;;0.62;100.00
37634;BME280;32048;49.902;22.508;2023-04-03T07:55:47;98978.97;;;0.67;100.00
37634;BME280;32048;49.902;22.508;2023-04-03T07:58:17;98978.13;;;0.67;100.00
37634;BME280;32048;49.902;22.508;2023-04-03T08:00:45;98983.31;;;0.68;100.00
37634;BME280;32048;49.902;22.508;2023-04-03T08:03:14;98985.03;;;0.69;100.00
37634;BME280;32048;49.902;22.508;2023-04-03T08:05:46;98986.75;;;0.67;100.00
37634;BME280;32048;49.902;22.508;2023-04-03T08:08:18;98990.28;;;0.61;100.00
37634;BME280;32048;49.902;22.508;2023-04-03T08:10:51;99003.25;;;0.65;100.00
37634;BME280;32048;49.902;22.508;2023-04-03T08:13:21;98993.75;;;0.64;100.00
37634;BME280;32048;49.902;22.508;2023-04-03T08:15:49;99005.84;;;0.66;100.00
37634;BME280;32048;49.902;22.508;2023-04-03T08:18:17;99012.75;;;0.67;100.00
37634;BME280;32048;49.902;22.508;2023-04-03T08:20:45;99010.16;;;0.69;100.00
37634;BME280;32048;49.902;22.508;2023-04-03T08:23:12;99019.69;;;0.70;100.00
37634;BME280;32048;49.902;22.508;2023-04-03T08:25:40;99022.28;;;0.68;100.00
37634;BME280;32048;49.902;22.508;2023-04-03T08:28:09;99030.94;;;0.67;100.00
37634;BME280;32048;49.902;22.508;2023-04-03T08:30:41;99028.41;;;0.61;100.00
37634;BME280;32048;49.902;22.508;2023-04-03T08:33:09;99038.81;;;0.61;100.00
37634;BME280;32048;49.902;22.508;2023-04-03T08:35:41;99036.19;;;0.64;100.00
37634;BME280;32048;49.902;22.508;2023-04-03T08:38:10;99033.59;;;0.64;100.00
37634;BME280;32048;49.902;22.508;2023-04-03T08:40:38;99037.91;;;0.65;100.00
37634;BME280;32048;49.902;22.508;2023-04-03T08:45:54;99046.56;;;0.66;100.00
37634;BME280;32048;49.902;22.508;2023-04-03T08:48:41;99048.31;;;0.65;100.00
37634;BME280;32048;49.902;22.508;2023-04-03T08:51:13;99047.47;;;0.61;100.00
37634;BME280;32048;49.902;22.508;2023-04-03T08:53:46;99059.59;;;0.61;100.00
37634;BME280;32048;49.902;22.508;2023-04-03T08:56:18;99058.72;;;0.62;100.00
37634;BME280;32048;49.902;22.508;2023-04-03T08:58:47;99064.81;;;0.58;100.00
37634;BME280;32048;49.902;22.508;2023-04-03T09:01:35;99070.00;;;0.58;100.00
37634;BME280;32048;49.902;22.508;2023-04-03T09:04:08;99070.88;;;0.55;100.00
37634;BME280;32048;49.902;22.508;2023-04-03T09:06:38;99070.91;;;0.52;100.00
37634;BME280;32048;49.902;22.508;2023-04-03T09:14:41;99079.63;;;0.44;100.00
37634;BME280;32048;49.902;22.508;2023-04-03T09:17:18;99077.91;;;0.41;100.00
37634;BME280;32048;49.902;22.508;2023-04-03T09:22:59;99073.59;;;0.35;100.00
37634;BME280;32048;49.902;22.508;2023-04-03T09:25:32;99076.19;;;0.35;100.00
37634;BME280;32048;49.902;22.508;2023-04-03T09:28:02;99077.06;;;0.36;100.00
37634;BME280;32048;49.902;22.508;2023-04-03T09:30:29;99088.31;;;0.38;100.00
37634;BME280;32048;49.902;22.508;2023-04-03T09:32:57;99086.56;;;0.41;100.00
37634;BME280;32048;49.902;22.508;2023-04-03T09:35:35;99080.47;;;0.44;100.00
37634;BME280;32048;49.902;22.508;2023-04-03T09:38:17;99089.16;;;0.40;100.00
37634;BME280;32048;49.902;22.508;2023-04-03T09:41:13;99093.50;;;0.38;100.00
37634;BME280;32048;49.902;22.508;2023-04-03T09:43:37;99091.78;;;0.37;100.00
37634;BME280;32048;49.902;22.508;2023-04-03T09:48:56;99101.31;;;0.33;100.00
37634;BME280;32048;49.902;22.508;2023-04-03T09:51:34;99102.19;;;0.35;100.00
37634;BME280;32048;49.902;22.508;2023-04-03T09:54:32;99102.19;;;0.35;100.00
37634;BME280;32048;49.902;22.508;2023-04-03T09:57:04;99109.09;;;0.39;100.00
37634;BME280;32048;49.902;22.508;2023-04-03T09:59:33;99109.94;;;0.41;100.00
37634;BME280;32048;49.902;22.508;2023-04-03T10:04:43;99119.47;;;0.47;100.00
37634;BME280;32048;49.902;22.508;2023-04-03T10:07:32;99115.97;;;0.50;100.00
37634;BME280;32048;49.902;22.508;2023-04-03T10:10:17;99130.69;;;0.45;100.00
37634;BME280;32048;49.902;22.508;2023-04-03T10:12:47;99127.25;;;0.47;100.00
37634;BME280;32048;49.902;22.508;2023-04-03T10:15:16;99130.69;;;0.48;100.00
37634;BME280;32048;49.902;22.508;2023-04-03T10:18:06;99130.69;;;0.49;100.00
37634;BME280;32048;49.902;22.508;2023-04-03T10:20:51;99143.66;;;0.51;100.00
37634;BME280;32048;49.902;22.508;2023-04-03T10:29:36;99137.69;;;0.33;100.00
37634;BME280;32048;49.902;22.508;2023-04-03T10:34:42;99154.16;;;0.32;100.00
37634;BME280;32048;49.902;22.508;2023-04-03T10:37:27;99161.09;;;0.32;100.00
37634;BME280;32048;49.902;22.508;2023-04-03T10:53:55;99182.75;;;0.28;100.00
37634;BME280;32048;49.902;22.508;2023-04-03T10:56:50;99178.44;;;0.25;100.00
37634;BME280;32048;49.902;22.508;2023-04-03T10:59:53;99184.47;;;0.24;100.00
37634;BME280;32048;49.902;22.508;2023-04-03T11:02:28;99179.28;;;0.26;100.00
37634;BME280;32048;49.902;22.508;2023-04-03T11:05:04;99181.88;;;0.26;100.00
37634;BME280;32048;49.902;22.508;2023-04-03T11:07:42;99185.34;;;0.29;100.00
37634;BME280;32048;49.902;22.508;2023-04-03T11:10:15;99187.06;;;0.29;100.00
37634;BME280;32048;49.902;22.508;2023-04-03T11:12:52;99189.66;;;0.29;100.00
37634;BME280;32048;49.902;22.508;2023-04-03T11:15:24;99185.31;;;0.31;100.00
37634;BME280;32048;49.902;22.508;2023-04-03T11:17:55;99198.31;;;0.32;100.00
37634;BME280;32048;49.902;22.508;2023-04-03T11:20:29;99197.44;;;0.33;100.00
37634;BME280;32048;49.902;22.508;2023-04-03T11:25:40;99201.75;;;0.40;100.00
37634;BME280;32048;49.902;22.508;2023-04-03T11:28:13;99203.47;;;0.43;100.00
37634;BME280;32048;49.902;22.508;2023-04-03T11:36:03;99207.81;;;0.33;100.00
37634;BME280;32048;49.902;22.508;2023-04-03T11:38:54;99217.34;;;0.36;100.00
37634;BME280;32048;49.902;22.508;2023-04-03T11:41:27;99217.34;;;0.36;100.00
37634;BME280;32048;49.902;22.508;2023-04-03T11:58:12;99218.22;;;0.30;100.00
37634;BME280;32048;49.902;22.508;2023-04-03T12:00:53;99215.66;;;0.27;100.00
37634;BME280;32048;49.902;22.508;2023-04-03T12:40:57;99243.31;;;0.37;100.00
37634;BME280;32048;49.902;22.508;2023-04-03T12:43:39;99252.88;;;0.34;100.00
37634;BME280;32048;49.902;22.508;2023-04-03T12:46:11;99254.59;;;0.32;100.00
37634;BME280;32048;49.902;22.508;2023-04-03T12:48:58;99249.38;;;0.33;100.00
37634;BME280;32048;49.902;22.508;2023-04-03T12:51:35;99248.53;;;0.34;100.00
37634;BME280;32048;49.902;22.508;2023-04-03T12:54:14;99242.44;;;0.35;100.00
37634;BME280;32048;49.902;22.508;2023-04-03T12:56:42;99242.47;;;0.34;100.00
37634;BME280;32048;49.902;22.508;2023-04-03T12:59:25;99243.34;;;0.34;100.00
37634;BME280;32048;49.902;22.508;2023-04-03T13:01:55;99247.63;;;0.40;100.00
37634;BME280;32048;49.902;22.508;2023-04-03T13:04:22;99239.84;;;0.43;100.00
37634;BME280;32048;49.902;22.508;2023-04-03T13:06:50;99238.97;;;0.46;100.00
37634;BME280;32048;49.902;22.508;2023-04-03T13:09:25;99234.63;;;0.52;100.00
37634;BME280;32048;49.902;22.508;2023-04-03T13:12:00;99233.75;;;0.56;100.00
37634;BME280;32048;49.902;22.508;2023-04-03T13:14:28;99235.44;;;0.60;100.00
37634;BME280;32048;49.902;22.508;2023-04-03T13:17:03;99239.75;;;0.60;100.00
37634;BME280;32048;49.902;22.508;2023-04-03T13:19:31;99242.31;;;0.69;100.00
37634;BME280;32048;49.902;22.508;2023-04-03T13:22:07;99235.41;;;0.74;100.00
37634;BME280;32048;49.902;22.508;2023-04-03T13:24:37;99233.59;;;0.82;100.00
37634;BME280;32048;49.902;22.508;2023-04-03T13:27:06;99243.13;;;0.85;100.00
37634;BME280;32048;49.902;22.508;2023-04-03T13:29:36;99238.78;;;0.87;100.00
37634;BME280;32048;49.902;22.508;2023-04-03T13:32:04;99254.38;;;0.87;100.00
37634;BME280;32048;49.902;22.508;2023-04-03T13:34:38;99255.25;;;0.86;100.00
37634;BME280;32048;49.902;22.508;2023-04-03T13:37:22;99246.59;;;0.84;100.00
37634;BME280;32048;49.902;22.508;2023-04-03T13:42:37;99261.38;;;0.79;100.00
37634;BME280;32048;49.902;22.508;2023-04-03T13:47:42;99247.47;;;0.85;100.00
37634;BME280;32048;49.902;22.508;2023-04-03T13:50:19;99246.59;;;0.84;100.00
37634;BME280;32048;49.902;22.508;2023-04-03T13:53:00;99247.47;;;0.86;100.00
37634;BME280;32048;49.902;22.508;2023-04-03T13:55:30;99248.34;;;0.82;100.00
37634;BME280;32048;49.902;22.508;2023-04-03T14:03:24;99242.22;;;0.89;100.00
37634;BME280;32048;49.902;22.508;2023-04-03T14:05:52;99237.06;;;0.88;100.00
37634;BME280;32048;49.902;22.508;2023-04-03T14:08:21;99243.97;;;0.90;100.00
37634;BME280;32048;49.902;22.508;2023-04-03T14:11:05;99247.41;;;0.97;100.00
37634;BME280;32048;49.902;22.508;2023-04-03T14:13:33;99242.19;;;1.00;100.00
37634;BME280;32048;49.902;22.508;2023-04-03T14:16:00;99239.56;;;1.03;100.00
37634;BME280;32048;49.902;22.508;2023-04-03T14:18:43;99238.69;;;1.04;100.00
37634;BME280;32048;49.902;22.508;2023-04-03T14:21:13;99236.94;;;1.11;100.00
37634;BME280;32048;49.902;22.508;2023-04-03T14:23:40;99239.50;;;1.17;100.00
37634;BME280;32048;49.902;22.508;2023-04-03T14:26:13;99235.13;;;1.22;100.00
37634;BME280;32048;49.902;22.508;2023-04-03T14:28:45;99227.31;;;1.22;100.00
37634;BME280;32048;49.902;22.508;2023-04-03T14:31:12;99229.03;;;1.23;100.00
37634;BME280;32048;49.902;22.508;2023-04-03T14:33:40;99225.56;;;1.22;100.00
37634;BME280;32048;49.902;22.508;2023-04-03T14:36:20;99226.44;;;1.23;100.00
37634;BME280;32048;49.902;22.508;2023-04-03T14:38:48;99221.22;;;1.23;100.00
37634;BME280;32048;49.902;22.508;2023-04-03T14:41:18;99225.56;;;1.22;100.00
37634;BME280;32048;49.902;22.508;2023-04-03T14:43:46;99230.75;;;1.25;100.00
37634;BME280;32048;49.902;22.508;2023-04-03T14:46:19;99224.75;;;1.17;100.00
37634;BME280;32048;49.902;22.508;2023-04-03T14:48:52;99230.84;;;1.13;100.00
37634;BME280;32048;49.902;22.508;2023-04-03T14:51:19;99225.66;;;1.07;100.00
37634;BME280;32048;49.902;22.508;2023-04-03T14:53:46;99229.16;;;1.03;100.00
37634;BME280;32048;49.902;22.508;2023-04-03T14:56:34;99216.16;;;1.04;100.00
37634;BME280;32048;49.902;22.508;2023-04-03T14:59:01;99225.59;;;1.16;100.00
37634;BME280;32048;49.902;22.508;2023-04-03T15:01:30;99222.03;;;1.30;100.00
37634;BME280;32048;49.902;22.508;2023-04-03T15:03:57;99223.75;;;1.35;100.00